Список аэропортов
Фактическая погода:

25 июня, 11:00
Температура: +19°C (+18.4*)
Ветер: сев.-западный 8 м/с
Давление: *754 мм
неб. 990 м
Время (МСК)Темп. СВетерВлажностьДавлениеОблачностьОсадки
09:00+19СЗ, 6 м/с63%1004 гПаясно
10:00+20СЗ, 6 м/с59%1005 гПаясно
11:00+20СЗ, 6 м/с54%1006 гПаясно
12:00+20З, 6 м/с51%1006 гПаясно
13:00+21З, 6 м/с50%1007 гПаясно
14:00+21З, 6 м/с48%1007 гПамалооблачно
15:00+20З, 5 м/с45%1007 гПаоблачно
16:00+20З, 4 м/с48%1007 гПаоблачно
17:00+20З, 4 м/с48%1008 гПас прояснениями
18:00+19З, 3 м/с50%1008 гПас прояснениями
19:00+18З, 2 м/с57%1008 гПас прояснениями
20:00+17ЮЗ, 2 м/с69%1009 гПамалооблачно
21:00+15ЮЗ, 2 м/с78%1010 гПас прояснениями
22:00+14ЮЗ, 2 м/с84%1010 гПаясно
23:00+14З, 3 м/с84%1010 гПас прояснениями
26 июня
00:00+14З, 2 м/с87%1010 гПас прояснениями
01:00+14З, 2 м/с88%1011 гПаоблачно
02:00+14З, 2 м/с88%1011 гПас прояснениями
03:00+13ЮЗ, 1 м/с93%1011 гПас прояснениями
04:00+13ЮЗ, 1 м/с94%1012 гПас прояснениями
05:00+14ЮЗ, 2 м/с91%1012 гПаясно
06:00+16З, 2 м/с77%1012 гПаясно
07:00+19ЮЗ, 2 м/с66%1012 гПаясно
08:00+21ЮЗ, 3 м/с55%1012 гПаоблачно
09:00+22З, 4 м/с47%1012 гПас прояснениями
10:00+23ЮЗ, 5 м/с44%1012 гПаоблачно
11:00+23ЮЗ, 5 м/с43%1012 гПаоблачно
12:00+24ЮЗ, 5 м/с42%1012 гПаоблачно
13:00+24ЮЗ, 5 м/с42%1012 гПаоблачно
14:00+25ЮЗ, 5 м/с40%1012 гПаоблачно
15:00+25ЮЗ, 6 м/с41%1011 гПас прояснениями
16:00+25ЮЗ, 6 м/с42%1011 гПамалооблачно
17:00+24ЮЗ, 6 м/с45%1011 гПаясно
18:00+24ЮЗ, 5 м/с47%1011 гПаясно
19:00+23ЮЗ, 4 м/с54%1011 гПаясно
20:00+21Ю, 3 м/с65%1011 гПамалооблачно
21:00+20Ю, 3 м/с73%1011 гПамалооблачно
22:00+19ЮЗ, 3 м/с79%1011 гПаясно
23:00+18ЮЗ, 3 м/с82%1011 гПамалооблачно
27 июня
00:00+18ЮЗ, 3 м/с83%1011 гПамалооблачно
01:00+18ЮЗ, 3 м/с84%1011 гПамалооблачно
02:00+18ЮЗ, 3 м/с86%1011 гПаясно
03:00+17ЮЗ, 3 м/с88%1011 гПаясно
04:00+17ЮЗ, 3 м/с88%1011 гПамалооблачно
05:00+18Ю, 4 м/с84%1011 гПаясно
06:00+20Ю, 5 м/с75%1010 гПаясно
07:00+22ЮЗ, 6 м/с67%1010 гПас прояснениями
08:00+23ЮЗ, 6 м/с64%1010 гПаоблачно
09:00+24ЮЗ, 7 м/с62%1010 гПаоблачно